createdAt,value
2023-02-27T00:00:22.562Z,-0.79
2023-02-27T00:02:52.334Z,-0.80
2023-02-27T00:05:22.512Z,-0.81
2023-02-27T00:07:50.136Z,-0.85
2023-02-27T00:10:17.568Z,-0.86
2023-02-27T00:12:45.015Z,-0.85
2023-02-27T00:15:18.747Z,-0.85
2023-02-27T00:17:48.066Z,-0.90
2023-02-27T00:20:18.365Z,-0.91
2023-02-27T00:22:46.126Z,-0.92
2023-02-27T00:25:13.919Z,-0.97
2023-02-27T00:27:41.844Z,-1.03
2023-02-27T00:30:12.953Z,-1.04
2023-02-27T00:32:40.874Z,-1.06
2023-02-27T00:35:11.088Z,-1.07
2023-02-27T00:37:39.036Z,-1.08
2023-02-27T00:40:07.829Z,-1.08
2023-02-27T00:42:35.451Z,-1.08
2023-02-27T00:45:04.395Z,-1.05
2023-02-27T00:47:32.986Z,-1.08
2023-02-27T00:50:00.110Z,-1.12
2023-02-27T00:52:27.585Z,-1.14
2023-02-27T00:54:54.594Z,-1.16
2023-02-27T00:57:22.210Z,-1.17
2023-02-27T00:59:50.432Z,-1.17
2023-02-27T01:02:17.603Z,-1.17
2023-02-27T01:04:44.594Z,-1.19
2023-02-27T01:07:11.616Z,-1.22
2023-02-27T01:09:38.613Z,-1.25
2023-02-27T01:12:06.010Z,-1.28
2023-02-27T01:14:33.216Z,-1.33
2023-02-27T01:17:00.194Z,-1.38
2023-02-27T01:19:27.258Z,-1.42
2023-02-27T01:21:54.379Z,-1.45
2023-02-27T01:24:21.993Z,-1.47
2023-02-27T01:26:49.431Z,-1.51
2023-02-27T01:29:16.537Z,-1.53
2023-02-27T01:31:43.774Z,-1.55
2023-02-27T01:34:11.569Z,-1.61
2023-02-27T01:36:41.205Z,-1.64
2023-02-27T01:39:08.517Z,-1.66
2023-02-27T01:41:36.130Z,-1.68
2023-02-27T01:44:08.416Z,-1.70
2023-02-27T01:46:37.899Z,-1.71
2023-02-27T01:49:27.626Z,-1.69
2023-02-27T01:52:03.274Z,-1.69
2023-02-27T01:54:36.870Z,-1.69
2023-02-27T01:57:09.709Z,-1.64
2023-02-27T01:59:41.734Z,-1.61
2023-02-27T02:02:21.915Z,-1.57
2023-02-27T02:04:51.077Z,-1.59
2023-02-27T02:07:21.215Z,-1.58
2023-02-27T02:10:00.090Z,-1.62
2023-02-27T02:12:35.904Z,-1.64
2023-02-27T02:15:04.790Z,-1.64
2023-02-27T02:17:51.034Z,-1.66
2023-02-27T02:20:49.897Z,-1.66
2023-02-27T02:23:26.032Z,-1.73
2023-02-27T02:26:39.731Z,-1.76
2023-02-27T02:29:27.843Z,-1.77
2023-02-27T02:32:21.980Z,-1.79
2023-02-27T02:35:07.725Z,-1.81
2023-02-27T02:38:03.081Z,-1.83
2023-02-27T02:41:07.188Z,-1.89
2023-02-27T02:44:02.484Z,-1.91
2023-02-27T02:47:08.129Z,-1.94
2023-02-27T02:49:53.534Z,-2.00
2023-02-27T02:52:37.992Z,-2.03
2023-02-27T02:55:45.057Z,-2.08
2023-02-27T02:58:46.418Z,-2.10
2023-02-27T03:01:26.639Z,-2.11
2023-02-27T03:04:10.758Z,-2.12
2023-02-27T03:06:48.910Z,-2.20
2023-02-27T03:09:45.340Z,-2.25
2023-02-27T03:12:18.405Z,-2.29
2023-02-27T03:15:18.057Z,-2.31
2023-02-27T03:18:02.514Z,-2.33
2023-02-27T03:20:39.562Z,-2.32
2023-02-27T03:23:19.737Z,-2.31
2023-02-27T03:25:51.248Z,-2.29
2023-02-27T03:28:27.678Z,-2.29
2023-02-27T03:31:11.728Z,-2.31
2023-02-27T03:34:23.533Z,-2.24
2023-02-27T03:37:20.146Z,-2.17
2023-02-27T03:39:53.891Z,-2.14
2023-02-27T03:42:38.825Z,-2.13
2023-02-27T03:45:21.317Z,-2.14
2023-02-27T03:47:48.605Z,-2.16
2023-02-27T03:50:16.643Z,-2.21
2023-02-27T03:52:45.716Z,-2.27
2023-02-27T03:55:21.765Z,-2.32
2023-02-27T03:57:52.494Z,-2.38
2023-02-27T04:00:24.161Z,-2.39
2023-02-27T04:02:56.024Z,-2.42
2023-02-27T04:05:25.831Z,-2.43
2023-02-27T04:08:33.758Z,-2.48
2023-02-27T04:11:35.803Z,-2.58
2023-02-27T04:14:46.309Z,-2.59
2023-02-27T04:17:46.031Z,-2.62
2023-02-27T04:20:24.457Z,-2.66
2023-02-27T04:23:08.751Z,-2.71
2023-02-27T04:26:09.374Z,-2.73
2023-02-27T04:29:20.274Z,-2.75
2023-02-27T04:32:01.647Z,-2.77
2023-02-27T04:34:42.225Z,-2.74
2023-02-27T04:37:21.296Z,-2.72
2023-02-27T04:40:12.408Z,-2.67
2023-02-27T04:42:47.840Z,-2.67
2023-02-27T04:45:21.204Z,-2.66
2023-02-27T04:47:57.704Z,-2.65
2023-02-27T04:50:38.057Z,-2.63
2023-02-27T04:53:20.116Z,-2.65
2023-02-27T04:55:53.665Z,-2.66
2023-02-27T04:58:50.361Z,-2.66
2023-02-27T05:01:40.678Z,-2.61
2023-02-27T05:04:13.521Z,-2.62
2023-02-27T05:06:45.683Z,-2.64
2023-02-27T05:09:21.949Z,-2.60
2023-02-27T05:12:06.147Z,-2.59
2023-02-27T05:14:49.494Z,-2.58
2023-02-27T05:17:45.067Z,-2.57
2023-02-27T05:20:15.114Z,-2.60
2023-02-27T05:23:06.511Z,-2.64
2023-02-27T05:25:51.224Z,-2.68
2023-02-27T05:28:46.934Z,-2.69
2023-02-27T05:31:35.393Z,-2.71
2023-02-27T05:34:18.631Z,-2.71
2023-02-27T05:36:57.660Z,-2.66
2023-02-27T05:39:32.679Z,-2.62
2023-02-27T05:42:36.471Z,-2.60
2023-02-27T05:45:18.059Z,-2.61
2023-02-27T05:47:55.565Z,-2.62
2023-02-27T05:50:32.519Z,-2.60
2023-02-27T05:53:08.611Z,-2.26
2023-02-27T05:55:43.857Z,-1.82
2023-02-27T05:58:30.700Z,-1.47
2023-02-27T06:01:05.675Z,-1.38
2023-02-27T06:03:37.180Z,-1.59
2023-02-27T06:06:12.517Z,-1.67
2023-02-27T06:08:40.684Z,-1.69
2023-02-27T06:11:08.693Z,-1.73
2023-02-27T06:13:36.567Z,-1.87
2023-02-27T06:16:05.272Z,-2.10
2023-02-27T06:18:33.210Z,-2.34
2023-02-27T06:21:02.443Z,-2.56
2023-02-27T06:23:30.114Z,-2.77
2023-02-27T06:25:58.394Z,-2.92
2023-02-27T06:28:26.405Z,-3.03
2023-02-27T06:30:57.582Z,-3.13
2023-02-27T06:33:29.034Z,-3.19
2023-02-27T06:35:58.871Z,-3.25
2023-02-27T06:38:27.550Z,-3.30
2023-02-27T06:40:55.302Z,-3.36
2023-02-27T06:43:23.194Z,-3.40
2023-02-27T06:45:54.342Z,-3.41
2023-02-27T06:48:21.981Z,-3.41
2023-02-27T06:53:23.763Z,-3.40
2023-02-27T06:55:51.121Z,-3.38
2023-02-27T06:58:18.389Z,-3.35
2023-02-27T07:00:45.766Z,-3.29
2023-02-27T07:03:13.631Z,-3.24
2023-02-27T07:05:42.412Z,-3.16
2023-02-27T07:08:11.097Z,-3.05
2023-02-27T07:10:39.961Z,-2.97
2023-02-27T07:13:06.976Z,-2.87
2023-02-27T07:15:34.125Z,-2.77
2023-02-27T07:18:01.066Z,-2.69
2023-02-27T07:20:28.074Z,-2.58
2023-02-27T07:22:55.062Z,-2.46
2023-02-27T07:25:22.103Z,-2.35
2023-02-27T07:27:50.793Z,-2.25
2023-02-27T07:30:19.582Z,-2.15
2023-02-27T07:32:47.248Z,-2.06
2023-02-27T07:35:14.535Z,-1.97
2023-02-27T07:37:41.487Z,-1.87
2023-02-27T07:40:09.903Z,-1.78
2023-02-27T07:42:36.991Z,-1.66
2023-02-27T07:45:04.983Z,-1.56
2023-02-27T07:47:32.118Z,-1.46
2023-02-27T07:49:59.134Z,-1.37
2023-02-27T07:52:26.220Z,-1.27
2023-02-27T07:54:53.302Z,-1.14
2023-02-27T07:57:20.347Z,-1.06
2023-02-27T07:59:48.393Z,-0.95
2023-02-27T08:02:15.638Z,-0.82
2023-02-27T08:04:42.644Z,-0.70
2023-02-27T08:07:09.646Z,-0.60
2023-02-27T08:09:36.603Z,-0.46
2023-02-27T08:12:03.747Z,-0.34
2023-02-27T08:14:30.814Z,-0.25
2023-02-27T08:16:57.906Z,-0.13
2023-02-27T08:19:24.811Z,-0.01
2023-02-27T08:21:51.875Z,0.10
2023-02-27T08:24:19.085Z,0.23
2023-02-27T08:26:46.266Z,0.37
2023-02-27T08:29:14.607Z,0.50
2023-02-27T08:31:43.731Z,0.63
2023-02-27T08:34:11.125Z,0.82
2023-02-27T08:36:38.883Z,0.97
2023-02-27T08:39:07.825Z,1.16
2023-02-27T08:41:35.471Z,1.29
2023-02-27T08:44:02.489Z,1.36
2023-02-27T08:46:29.800Z,1.41
2023-02-27T08:48:56.959Z,1.50
2023-02-27T08:51:23.917Z,1.59
2023-02-27T08:53:51.033Z,1.68
2023-02-27T08:56:17.987Z,1.84
2023-02-27T08:58:44.937Z,1.90
2023-02-27T09:01:11.915Z,2.01
2023-02-27T09:03:38.845Z,2.09
2023-02-27T09:06:05.960Z,2.20
2023-02-27T09:08:32.981Z,2.25
2023-02-27T09:10:59.974Z,2.31
2023-02-27T09:13:27.013Z,2.39
2023-02-27T09:15:54.935Z,2.42
2023-02-27T09:18:23.158Z,2.48
2023-02-27T09:20:51.892Z,2.60
2023-02-27T09:23:19.524Z,2.71
2023-02-27T09:25:47.632Z,2.76
2023-02-27T09:28:15.478Z,2.83
2023-02-27T09:30:42.567Z,2.94
2023-02-27T09:33:09.599Z,3.08
2023-02-27T09:35:37.169Z,3.12
2023-02-27T09:38:04.305Z,3.20
2023-02-27T09:40:39.579Z,3.28
2023-02-27T09:43:24.060Z,3.40
2023-02-27T09:45:56.209Z,3.42
2023-02-27T09:48:42.642Z,3.42
2023-02-27T09:51:09.921Z,3.54
2023-02-27T09:53:46.014Z,3.68
2023-02-27T09:56:35.665Z,3.75
2023-02-27T09:59:34.258Z,3.80
2023-02-27T10:02:49.629Z,3.87
2023-02-27T10:05:49.583Z,3.88
2023-02-27T10:08:45.013Z,3.98
2023-02-27T10:11:20.331Z,4.03
2023-02-27T10:14:04.860Z,4.14
2023-02-27T10:16:34.642Z,4.09
2023-02-27T10:19:06.053Z,4.08
2023-02-27T10:21:44.262Z,4.26
2023-02-27T10:24:37.599Z,4.25
2023-02-27T10:27:15.938Z,4.40
2023-02-27T10:29:43.372Z,4.42
2023-02-27T10:32:32.843Z,4.40
2023-02-27T10:35:34.334Z,4.48
2023-02-27T10:38:11.318Z,4.61
2023-02-27T10:40:41.609Z,4.63
2023-02-27T10:43:09.002Z,4.66
2023-02-27T10:45:37.478Z,4.74
2023-02-27T10:48:06.405Z,4.72
2023-02-27T10:50:40.948Z,4.78
2023-02-27T10:53:24.140Z,4.88
2023-02-27T10:56:05.195Z,5.00
2023-02-27T10:58:36.867Z,4.94
2023-02-27T11:01:09.766Z,4.91
2023-02-27T11:03:44.074Z,4.98
2023-02-27T11:06:25.365Z,5.12
2023-02-27T11:09:27.938Z,5.20
2023-02-27T11:12:10.125Z,5.27
2023-02-27T11:14:54.991Z,5.37
2023-02-27T11:17:27.352Z,5.43
2023-02-27T11:19:56.183Z,5.55
2023-02-27T11:22:26.467Z,5.61
2023-02-27T11:25:21.226Z,5.49
2023-02-27T11:27:52.025Z,5.54
2023-02-27T11:30:29.285Z,5.51
2023-02-27T11:33:01.253Z,5.62
2023-02-27T11:35:33.656Z,5.59
2023-02-27T11:38:05.641Z,5.58
2023-02-27T11:40:50.227Z,5.74
2023-02-27T11:43:23.262Z,5.99
2023-02-27T11:46:11.864Z,5.96
2023-02-27T11:48:52.903Z,5.98
2023-02-27T11:52:36.634Z,6.08
2023-02-27T11:55:17.864Z,6.20
2023-02-27T11:57:50.272Z,6.35
2023-02-27T12:00:31.069Z,6.27
2023-02-27T12:03:23.085Z,6.04
2023-02-27T12:05:59.766Z,5.87
2023-02-27T12:08:42.708Z,5.81
2023-02-27T12:11:29.796Z,5.75
2023-02-27T12:14:16.821Z,5.87
2023-02-27T12:16:55.971Z,5.93
2023-02-27T12:19:38.293Z,5.90
2023-02-27T12:22:20.562Z,6.10
2023-02-27T12:25:13.924Z,5.98
2023-02-27T12:27:54.184Z,6.12
2023-02-27T12:30:36.356Z,6.05
2023-02-27T12:33:30.537Z,5.95
2023-02-27T12:36:02.811Z,5.79
2023-02-27T12:38:31.332Z,5.89
2023-02-27T12:41:43.944Z,6.03
2023-02-27T12:44:41.940Z,5.98
2023-02-27T12:47:40.596Z,5.94
2023-02-27T12:50:16.640Z,5.83
2023-02-27T12:53:01.133Z,5.81
2023-02-27T12:55:36.937Z,5.77
2023-02-27T12:58:23.504Z,5.79
2023-02-27T13:01:05.235Z,5.67
2023-02-27T13:04:00.607Z,5.59
2023-02-27T13:06:45.674Z,5.60
2023-02-27T13:09:32.529Z,5.71
2023-02-27T13:12:41.651Z,5.77
2023-02-27T13:15:19.725Z,5.82
2023-02-27T13:17:56.677Z,6.02
2023-02-27T13:20:32.135Z,6.16
2023-02-27T13:23:23.890Z,6.33
2023-02-27T13:25:55.936Z,6.52
2023-02-27T13:28:28.825Z,6.65
2023-02-27T13:31:44.069Z,6.45
2023-02-27T13:34:46.280Z,6.30
2023-02-27T13:37:13.390Z,6.49
2023-02-27T13:39:42.399Z,6.65
2023-02-27T13:42:28.092Z,6.81
2023-02-27T13:45:01.484Z,6.99
2023-02-27T13:47:40.314Z,7.13
2023-02-27T13:50:21.215Z,7.14
2023-02-27T13:52:48.999Z,6.83
2023-02-27T13:55:36.852Z,6.53
2023-02-27T13:58:06.316Z,6.30
2023-02-27T14:00:37.872Z,6.18
2023-02-27T14:03:21.708Z,6.21
2023-02-27T14:05:54.080Z,6.44
2023-02-27T14:08:25.514Z,6.74
2023-02-27T14:11:19.216Z,7.05
2023-02-27T14:13:56.964Z,7.24
2023-02-27T14:16:39.994Z,7.12
2023-02-27T14:19:16.334Z,6.98
2023-02-27T14:22:16.053Z,6.93
2023-02-27T14:25:02.965Z,6.76
2023-02-27T14:27:57.148Z,6.64
2023-02-27T14:30:40.776Z,6.51
2023-02-27T14:33:39.992Z,6.46
2023-02-27T14:36:19.893Z,6.43
2023-02-27T14:38:48.270Z,6.29
2023-02-27T14:41:15.287Z,6.08
2023-02-27T14:43:55.787Z,5.95
2023-02-27T14:46:39.365Z,5.88
2023-02-27T14:49:19.953Z,6.02
2023-02-27T14:51:47.000Z,6.13
2023-02-27T14:54:26.338Z,6.32
2023-02-27T14:57:06.652Z,6.33
2023-02-27T14:59:44.537Z,6.36
2023-02-27T15:02:35.706Z,6.41
2023-02-27T15:05:02.659Z,6.39
2023-02-27T15:07:34.993Z,6.19
2023-02-27T15:10:08.699Z,6.07
2023-02-27T15:12:39.816Z,6.15
2023-02-27T15:15:10.350Z,6.02
2023-02-27T15:17:43.982Z,5.84
2023-02-27T15:20:34.066Z,5.96
2023-02-27T15:23:21.217Z,5.98
2023-02-27T15:25:48.589Z,6.04
2023-02-27T15:28:25.985Z,6.03
2023-02-27T15:30:56.401Z,6.06
2023-02-27T15:33:33.551Z,6.10
2023-02-27T15:36:01.733Z,6.08
2023-02-27T15:38:36.037Z,6.09
2023-02-27T15:41:04.853Z,6.11
2023-02-27T15:43:33.013Z,6.13
2023-02-27T15:46:00.284Z,6.17
2023-02-27T15:48:29.463Z,6.13
2023-02-27T15:51:04.294Z,6.05
2023-02-27T15:53:34.026Z,6.01
2023-02-27T15:56:09.439Z,5.97
2023-02-27T15:58:53.607Z,5.81
2023-02-27T16:01:24.597Z,5.72
2023-02-27T16:03:56.134Z,5.66
2023-02-27T16:06:27.982Z,5.60
2023-02-27T16:08:57.035Z,5.56
2023-02-27T16:11:31.008Z,5.52
2023-02-27T16:13:58.584Z,5.48
2023-02-27T16:16:38.739Z,5.50
2023-02-27T16:19:30.560Z,5.43
2023-02-27T16:22:19.276Z,5.37
2023-02-27T16:24:47.692Z,5.34
2023-02-27T16:27:28.189Z,5.24
2023-02-27T16:30:02.879Z,5.20
2023-02-27T16:32:40.012Z,5.11
2023-02-27T16:35:20.548Z,5.06
2023-02-27T16:37:49.334Z,4.98
2023-02-27T16:40:22.776Z,4.90
2023-02-27T16:42:52.058Z,4.81
2023-02-27T16:45:24.822Z,4.71
2023-02-27T16:47:56.315Z,4.61
2023-02-27T16:50:35.488Z,4.53
2023-02-27T16:53:03.101Z,4.43
2023-02-27T16:55:33.680Z,4.40
2023-02-27T16:58:01.457Z,4.33
2023-02-27T17:00:29.373Z,4.24
2023-02-27T17:02:57.326Z,4.18
2023-02-27T17:05:25.065Z,4.12
2023-02-27T17:07:53.857Z,4.03
2023-02-27T17:10:25.583Z,3.96
2023-02-27T17:12:54.677Z,3.88
2023-02-27T17:15:23.040Z,3.80
2023-02-27T17:17:50.746Z,3.75
2023-02-27T17:20:18.073Z,3.67
2023-02-27T17:22:45.303Z,3.64
2023-02-27T17:25:14.250Z,3.58
2023-02-27T17:27:44.607Z,3.49
2023-02-27T17:30:13.782Z,3.44
2023-02-27T17:32:41.107Z,3.39
2023-02-27T17:35:09.414Z,3.29
2023-02-27T17:37:36.645Z,3.19
2023-02-27T17:40:08.065Z,3.10
2023-02-27T17:42:39.320Z,3.04
2023-02-27T17:45:08.923Z,2.94
2023-02-27T17:47:36.153Z,2.88
2023-02-27T17:50:05.667Z,2.83
2023-02-27T17:52:36.885Z,2.77
2023-02-27T17:55:06.063Z,2.69
2023-02-27T17:57:37.250Z,2.67
2023-02-27T18:00:14.272Z,2.62
2023-02-27T18:02:43.857Z,2.58
2023-02-27T18:05:11.442Z,2.54
2023-02-27T18:07:38.397Z,2.52
2023-02-27T18:10:09.080Z,2.49
2023-02-27T18:12:36.949Z,2.45
2023-02-27T18:15:06.153Z,2.38
2023-02-27T18:17:33.312Z,2.28
2023-02-27T18:20:00.454Z,2.20
2023-02-27T18:22:27.578Z,2.08
2023-02-27T18:24:55.666Z,2.00
2023-02-27T18:27:22.911Z,1.90
2023-02-27T18:29:50.223Z,1.80
2023-02-27T18:32:18.320Z,1.72
2023-02-27T18:34:45.489Z,1.62
2023-02-27T18:37:12.449Z,1.52
2023-02-27T18:39:43.153Z,1.44
2023-02-27T18:42:17.249Z,1.39
2023-02-27T18:44:48.383Z,1.36
2023-02-27T18:47:15.606Z,1.32
2023-02-27T18:49:43.187Z,1.34
2023-02-27T18:52:10.872Z,1.33
2023-02-27T18:54:40.992Z,1.31
2023-02-27T18:57:10.273Z,1.25
2023-02-27T18:59:38.192Z,1.16
2023-02-27T19:02:05.933Z,1.04
2023-02-27T19:04:34.177Z,0.97
2023-02-27T19:07:02.819Z,0.90
2023-02-27T19:09:32.941Z,0.89
2023-02-27T19:12:01.099Z,0.88
2023-02-27T19:14:28.878Z,0.88
2023-02-27T19:17:00.427Z,0.90
2023-02-27T19:19:28.914Z,0.91
2023-02-27T19:21:57.230Z,0.95
2023-02-27T19:24:26.212Z,0.97
2023-02-27T19:26:53.724Z,0.96
2023-02-27T19:29:21.602Z,0.95
2023-02-27T19:31:49.915Z,0.90
2023-02-27T19:34:17.851Z,0.87
2023-02-27T19:36:45.671Z,0.87
2023-02-27T19:39:13.350Z,0.85
2023-02-27T19:41:41.637Z,0.84
2023-02-27T19:44:10.094Z,0.82
2023-02-27T19:46:38.706Z,0.80
2023-02-27T19:49:08.065Z,0.79
2023-02-27T19:51:35.772Z,0.78
2023-02-27T19:54:03.025Z,0.77
2023-02-27T19:56:30.742Z,0.69
2023-02-27T19:59:00.796Z,0.63
2023-02-27T20:01:32.884Z,0.57
2023-02-27T20:04:01.295Z,0.53
2023-02-27T20:06:31.959Z,0.48
2023-02-27T20:09:00.103Z,0.43
2023-02-27T20:11:32.586Z,0.42
2023-02-27T20:14:00.653Z,0.40
2023-02-27T20:16:30.433Z,0.40
2023-02-27T20:18:57.903Z,0.38
2023-02-27T20:21:26.809Z,0.37
2023-02-27T20:23:55.157Z,0.34
2023-02-27T20:26:32.598Z,0.34
2023-02-27T20:29:05.338Z,0.31
2023-02-27T20:31:35.614Z,0.28
2023-02-27T20:34:06.044Z,0.28
2023-02-27T20:36:37.629Z,0.28
2023-02-27T20:39:10.269Z,0.26
2023-02-27T20:41:37.742Z,0.26
2023-02-27T20:44:05.539Z,0.26
2023-02-27T20:46:32.616Z,0.25
2023-02-27T20:49:03.913Z,0.20
2023-02-27T20:51:37.546Z,0.13
2023-02-27T20:54:11.361Z,0.05
2023-02-27T20:56:41.411Z,-0.03
2023-02-27T20:59:14.589Z,-0.09
2023-02-27T21:01:51.254Z,-0.11
2023-02-27T21:04:42.150Z,-0.07
2023-02-27T21:07:23.627Z,-0.04
2023-02-27T21:09:51.066Z,-0.04
2023-02-27T21:12:18.131Z,-0.05
2023-02-27T21:14:45.369Z,-0.09
2023-02-27T21:17:13.674Z,-0.14
2023-02-27T21:19:40.743Z,-0.20
2023-02-27T21:22:11.063Z,-0.27
2023-02-27T21:24:40.751Z,-0.32
2023-02-27T21:27:07.828Z,-0.35
2023-02-27T21:29:35.034Z,-0.37
2023-02-27T21:32:02.071Z,-0.42
2023-02-27T21:34:29.487Z,-0.47
2023-02-27T21:36:56.509Z,-0.51
2023-02-27T21:39:30.481Z,-0.51
2023-02-27T21:41:59.512Z,-0.54
2023-02-27T21:44:26.679Z,-0.55
2023-02-27T21:46:55.155Z,-0.54
2023-02-27T21:49:28.792Z,-0.57
2023-02-27T21:51:56.076Z,-0.58
2023-02-27T21:54:23.477Z,-0.61
2023-02-27T21:56:50.825Z,-0.66
2023-02-27T21:59:20.132Z,-0.73
2023-02-27T22:01:48.637Z,-0.81
2023-02-27T22:04:19.426Z,-0.84
2023-02-27T22:06:47.400Z,-0.88
2023-02-27T22:09:14.477Z,-0.91
2023-02-27T22:11:42.138Z,-0.91
2023-02-27T22:14:11.553Z,-0.89
2023-02-27T22:16:39.194Z,-0.90
2023-02-27T22:19:12.686Z,-0.90
2023-02-27T22:21:40.569Z,-0.91
2023-02-27T22:24:08.403Z,-0.91
2023-02-27T22:26:35.930Z,-0.91
2023-02-27T22:29:05.681Z,-0.88
2023-02-27T22:31:37.796Z,-0.87
2023-02-27T22:34:18.700Z,-0.87
2023-02-27T22:36:52.632Z,-0.89
2023-02-27T22:39:20.592Z,-0.92
2023-02-27T22:41:47.678Z,-0.94
2023-02-27T22:44:15.876Z,-0.94
2023-02-27T22:46:47.244Z,-0.96
2023-02-27T22:49:22.311Z,-0.97
2023-02-27T22:51:51.937Z,-0.97
2023-02-27T22:54:22.825Z,-0.98
2023-02-27T22:56:53.018Z,-1.00
2023-02-27T22:59:20.532Z,-0.99
2023-02-27T23:01:48.607Z,-0.99
2023-02-27T23:04:19.372Z,-0.98
2023-02-27T23:06:46.515Z,-1.00
2023-02-27T23:09:26.139Z,-1.00
2023-02-27T23:11:54.292Z,-1.02
2023-02-27T23:14:22.546Z,-1.08
2023-02-27T23:16:49.511Z,-1.12
2023-02-27T23:19:20.079Z,-1.17
2023-02-27T23:21:47.596Z,-1.21
2023-02-27T23:24:18.556Z,-1.19
2023-02-27T23:26:49.070Z,-1.17
2023-02-27T23:29:16.316Z,-1.18
2023-02-27T23:31:43.361Z,-1.17
2023-02-27T23:34:10.779Z,-1.15
2023-02-27T23:36:39.195Z,-1.17
2023-02-27T23:39:07.999Z,-1.21
2023-02-27T23:41:35.572Z,-1.22
2023-02-27T23:44:02.688Z,-1.24
2023-02-27T23:46:30.826Z,-1.26
2023-02-27T23:48:59.224Z,-1.25
2023-02-27T23:51:29.680Z,-1.24
2023-02-27T23:53:57.722Z,-1.23
2023-02-27T23:56:29.462Z,-1.23
2023-02-27T23:59:03.894Z,-1.22
